createdAt,value
2022-10-13T00:00:15.447Z,19.48
2022-10-13T00:02:43.073Z,17.63
2022-10-13T00:05:11.047Z,18.60
2022-10-13T00:07:38.712Z,18.85
2022-10-13T00:10:07.013Z,17.42
2022-10-13T00:12:37.413Z,17.88
2022-10-13T00:15:06.657Z,17.75
2022-10-13T00:17:36.335Z,17.63
2022-10-13T00:20:04.097Z,19.02
2022-10-13T00:22:32.132Z,21.52
2022-10-13T00:24:59.822Z,20.35
2022-10-13T00:27:27.591Z,21.50
2022-10-13T00:29:56.864Z,23.65
2022-10-13T00:32:24.567Z,23.85
2022-10-13T00:34:52.322Z,24.90
2022-10-13T00:37:19.988Z,24.17
2022-10-13T00:39:47.692Z,22.92
2022-10-13T00:42:15.485Z,22.08
2022-10-13T00:45:21.470Z,21.63
2022-10-13T00:47:52.551Z,21.27
2022-10-13T00:50:23.695Z,20.40
2022-10-13T00:52:54.054Z,19.83
2022-10-13T00:55:25.238Z,20.45
2022-10-13T00:57:55.093Z,19.05
2022-10-13T01:00:25.286Z,17.75
2022-10-13T01:02:53.304Z,18.27
2022-10-13T01:05:22.733Z,18.92
2022-10-13T01:07:51.999Z,19.17
2022-10-13T01:10:33.437Z,17.95
2022-10-13T01:13:07.952Z,18.25
2022-10-13T01:15:43.359Z,18.00
2022-10-13T01:18:20.941Z,18.17
2022-10-13T01:21:21.039Z,15.90
2022-10-13T01:24:19.918Z,17.33
2022-10-13T01:27:05.744Z,16.38
2022-10-13T01:30:03.094Z,17.25
2022-10-13T01:32:37.193Z,16.95
2022-10-13T01:35:10.653Z,17.35
2022-10-13T01:37:47.606Z,16.52
2022-10-13T01:40:25.635Z,16.73
2022-10-13T01:43:00.183Z,17.17
2022-10-13T01:45:33.196Z,15.23
2022-10-13T01:48:03.625Z,16.20
2022-10-13T01:50:33.414Z,18.00
2022-10-13T01:53:03.831Z,17.17
2022-10-13T01:55:32.030Z,17.63
2022-10-13T01:57:59.689Z,18.13
2022-10-13T02:00:32.070Z,17.67
2022-10-13T02:03:12.599Z,18.80
2022-10-13T02:05:49.246Z,18.20
2022-10-13T02:08:25.728Z,18.35
2022-10-13T02:11:02.625Z,17.55
2022-10-13T02:13:33.558Z,18.35
2022-10-13T02:16:03.262Z,17.95
2022-10-13T02:18:34.202Z,18.38
2022-10-13T02:21:03.523Z,18.13
2022-10-13T02:23:31.979Z,17.88
2022-10-13T02:26:01.285Z,19.05
2022-10-13T02:28:29.666Z,18.63
2022-10-13T02:30:57.997Z,18.52
2022-10-13T02:33:27.054Z,18.00
2022-10-13T02:35:54.714Z,20.38
2022-10-13T02:38:22.779Z,20.10
2022-10-13T02:40:50.412Z,19.10
2022-10-13T02:43:18.088Z,20.63
2022-10-13T02:45:45.770Z,19.52
2022-10-13T02:48:13.509Z,19.92
2022-10-13T02:50:42.571Z,19.08
2022-10-13T02:53:10.231Z,35.30
2022-10-13T02:55:37.890Z,35.70
2022-10-13T02:58:05.703Z,18.77
2022-10-13T03:00:33.502Z,18.40
2022-10-13T03:03:01.351Z,16.83
2022-10-13T03:05:29.000Z,17.52
2022-10-13T03:07:58.176Z,17.85
2022-10-13T03:10:26.080Z,17.83
2022-10-13T03:12:55.362Z,18.30
2022-10-13T03:15:23.611Z,18.25
2022-10-13T03:17:51.545Z,18.88
2022-10-13T03:20:19.249Z,18.80
2022-10-13T03:22:49.702Z,17.73
2022-10-13T03:25:19.224Z,17.23
2022-10-13T03:27:46.839Z,17.02
2022-10-13T03:30:14.769Z,17.40
2022-10-13T03:32:42.441Z,16.98
2022-10-13T03:35:10.299Z,16.58
2022-10-13T03:37:37.957Z,17.73
2022-10-13T03:40:06.757Z,16.73
2022-10-13T03:42:38.247Z,17.08
2022-10-13T03:45:07.099Z,17.08
2022-10-13T03:47:36.124Z,17.58
2022-10-13T03:50:05.418Z,17.73
2022-10-13T03:52:33.114Z,17.30
2022-10-13T03:55:00.829Z,16.13
2022-10-13T03:57:28.439Z,16.50
2022-10-13T03:59:58.060Z,15.43
2022-10-13T04:02:25.782Z,16.00
2022-10-13T04:04:53.701Z,16.52
2022-10-13T04:07:21.402Z,17.10
2022-10-13T04:09:49.117Z,16.02
2022-10-13T04:12:20.572Z,18.25
2022-10-13T04:14:48.727Z,18.48
2022-10-13T04:17:17.766Z,17.40
2022-10-13T04:19:45.690Z,17.73
2022-10-13T04:22:13.349Z,16.67
2022-10-13T04:24:41.071Z,17.33
2022-10-13T04:27:08.738Z,17.15
2022-10-13T04:29:36.509Z,16.98
2022-10-13T04:32:04.336Z,17.42
2022-10-13T04:34:33.380Z,17.65
2022-10-13T04:37:01.079Z,18.25
2022-10-13T04:39:28.844Z,17.73
2022-10-13T04:41:56.815Z,17.65
2022-10-13T04:44:24.491Z,18.05
2022-10-13T04:46:52.145Z,33.50
2022-10-13T04:49:19.842Z,20.45
2022-10-13T04:51:48.894Z,18.88
2022-10-13T04:54:16.679Z,20.00
2022-10-13T04:56:45.654Z,18.85
2022-10-13T04:59:13.419Z,18.05
2022-10-13T05:01:41.107Z,18.50
2022-10-13T05:04:09.382Z,18.73
2022-10-13T05:06:58.875Z,19.35
2022-10-13T05:09:29.048Z,19.10
2022-10-13T05:11:57.407Z,19.40
2022-10-13T05:14:25.224Z,19.15
2022-10-13T05:16:52.914Z,19.50
2022-10-13T05:19:21.310Z,18.20
2022-10-13T05:21:49.004Z,17.90
2022-10-13T05:24:16.672Z,18.67
2022-10-13T05:26:45.645Z,17.42
2022-10-13T05:29:13.251Z,18.10
2022-10-13T05:31:42.174Z,17.52
2022-10-13T05:34:10.369Z,17.20
2022-10-13T05:36:38.019Z,16.90
2022-10-13T05:39:08.312Z,17.23
2022-10-13T05:41:35.967Z,17.25
2022-10-13T05:44:09.024Z,17.60
2022-10-13T05:46:37.325Z,16.35
2022-10-13T05:49:05.187Z,17.35
2022-10-13T05:51:35.676Z,17.42
2022-10-13T05:54:07.867Z,16.88
2022-10-13T05:56:40.917Z,17.33
2022-10-13T05:59:14.360Z,16.60
2022-10-13T06:01:43.115Z,17.65
2022-10-13T06:04:16.012Z,14.77
2022-10-13T06:06:43.698Z,16.75
2022-10-13T06:09:11.695Z,15.57
2022-10-13T06:11:39.667Z,15.45
2022-10-13T06:14:07.526Z,15.68
2022-10-13T06:16:37.452Z,15.45
2022-10-13T06:19:05.475Z,15.57
2022-10-13T06:21:35.042Z,14.68
2022-10-13T06:24:03.064Z,14.63
2022-10-13T06:26:30.931Z,15.00
2022-10-13T06:28:59.930Z,15.75
2022-10-13T06:31:28.078Z,15.93
2022-10-13T06:33:57.078Z,15.15
2022-10-13T06:36:24.719Z,14.95
2022-10-13T06:38:52.555Z,17.23
2022-10-13T06:41:20.351Z,14.95
2022-10-13T06:43:48.989Z,16.02
2022-10-13T06:46:16.696Z,15.00
2022-10-13T06:48:44.397Z,16.52
2022-10-13T06:51:13.738Z,15.98
2022-10-13T06:53:41.397Z,16.40
2022-10-13T06:56:10.364Z,15.75
2022-10-13T06:58:38.688Z,18.45
2022-10-13T07:01:07.159Z,16.58
2022-10-13T07:03:34.886Z,17.25
2022-10-13T07:06:03.415Z,18.10
2022-10-13T07:08:33.047Z,19.70
2022-10-13T07:11:07.523Z,21.70
2022-10-13T07:13:37.671Z,18.20
2022-10-13T07:16:08.435Z,18.55
2022-10-13T07:18:36.567Z,16.92
2022-10-13T07:21:04.867Z,17.33
2022-10-13T07:23:34.383Z,17.92
2022-10-13T07:26:02.159Z,16.85
2022-10-13T07:28:29.972Z,16.77
2022-10-13T07:31:00.264Z,16.95
2022-10-13T07:33:28.230Z,17.65
2022-10-13T07:35:56.069Z,18.65
2022-10-13T07:38:23.895Z,17.58
2022-10-13T07:40:52.902Z,17.08
2022-10-13T07:43:20.542Z,18.15
2022-10-13T07:45:48.563Z,18.90
2022-10-13T07:48:16.620Z,20.08
2022-10-13T07:50:44.300Z,19.55
2022-10-13T07:53:11.991Z,19.58
2022-10-13T07:55:39.699Z,19.23
2022-10-13T07:58:10.761Z,18.52
2022-10-13T08:00:38.424Z,18.63
2022-10-13T08:03:06.125Z,18.88
2022-10-13T08:05:37.841Z,18.05
2022-10-13T08:08:05.612Z,17.25
2022-10-13T08:10:33.291Z,18.02
2022-10-13T08:13:00.949Z,17.20
2022-10-13T08:15:30.040Z,24.63
2022-10-13T08:17:57.907Z,17.92
2022-10-13T08:20:40.967Z,17.08
2022-10-13T08:23:11.812Z,17.23
2022-10-13T08:25:43.676Z,17.33
2022-10-13T08:28:18.696Z,16.40
2022-10-13T08:30:48.378Z,16.42
2022-10-13T08:33:16.189Z,16.70
2022-10-13T08:35:43.900Z,17.15
2022-10-13T08:38:11.658Z,16.60
2022-10-13T08:40:40.201Z,16.25
2022-10-13T08:43:08.233Z,18.58
2022-10-13T08:45:41.392Z,18.92
2022-10-13T08:48:16.896Z,19.02
2022-10-13T08:50:46.866Z,18.90
2022-10-13T08:53:19.176Z,18.55
2022-10-13T08:55:49.678Z,18.48
2022-10-13T08:58:20.790Z,17.70
2022-10-13T09:00:48.449Z,17.08
2022-10-13T09:03:25.116Z,15.75
2022-10-13T09:06:05.007Z,14.75
2022-10-13T09:08:38.893Z,15.05
2022-10-13T09:11:06.937Z,15.35
2022-10-13T09:13:34.591Z,14.60
2022-10-13T09:16:02.279Z,16.65
2022-10-13T09:18:32.835Z,17.45
2022-10-13T09:21:11.858Z,18.58
2022-10-13T09:23:41.854Z,17.90
2022-10-13T09:26:14.448Z,18.08
2022-10-13T09:28:42.229Z,16.48
2022-10-13T09:31:17.253Z,16.75
2022-10-13T09:33:47.606Z,16.70
2022-10-13T09:36:16.539Z,18.83
2022-10-13T09:39:05.028Z,18.33
2022-10-13T09:41:34.114Z,18.73
2022-10-13T09:44:11.741Z,18.90
2022-10-13T09:46:46.911Z,18.02
2022-10-13T09:49:30.947Z,18.50
2022-10-13T09:52:03.455Z,16.77
2022-10-13T09:57:23.209Z,16.64
2022-10-13T09:59:53.012Z,15.68
2022-10-13T10:02:33.067Z,14.43
2022-10-13T10:05:07.768Z,15.80
2022-10-13T10:07:35.524Z,18.55
2022-10-13T10:10:08.842Z,20.00
2022-10-13T10:12:40.949Z,17.02
2022-10-13T10:15:19.941Z,15.45
2022-10-13T10:17:53.717Z,17.85
2022-10-13T10:20:41.465Z,18.27
2022-10-13T10:23:15.084Z,15.27
2022-10-13T10:25:48.103Z,15.48
2022-10-13T10:28:36.055Z,15.02
2022-10-13T10:31:14.560Z,15.93
2022-10-13T10:33:51.576Z,18.00
2022-10-13T10:36:24.987Z,14.68
2022-10-13T10:39:00.216Z,14.45
2022-10-13T10:41:41.904Z,13.90
2022-10-13T10:44:12.109Z,12.57
2022-10-13T10:46:43.425Z,12.13
2022-10-13T10:49:16.407Z,11.80
2022-10-13T10:51:48.551Z,11.57
2022-10-13T10:54:27.626Z,11.48
2022-10-13T10:56:59.426Z,10.48
2022-10-13T10:59:40.096Z,11.68
2022-10-13T11:02:29.288Z,12.68
2022-10-13T11:05:03.584Z,12.85
2022-10-13T11:07:58.757Z,12.13
2022-10-13T11:10:30.441Z,12.60
2022-10-13T11:13:22.282Z,12.25
2022-10-13T11:15:50.709Z,15.10
2022-10-13T11:19:05.518Z,11.85
2022-10-13T11:22:13.355Z,11.30
2022-10-13T11:25:02.644Z,9.35
2022-10-13T11:27:42.582Z,9.07
2022-10-13T11:30:41.127Z,11.85
2022-10-13T11:33:42.074Z,8.38
2022-10-13T11:36:36.994Z,8.45
2022-10-13T11:39:21.782Z,8.60
2022-10-13T11:42:13.911Z,8.77
2022-10-13T11:44:54.124Z,8.43
2022-10-13T11:47:42.398Z,8.13
2022-10-13T11:50:21.705Z,7.93
2022-10-13T11:53:05.358Z,8.32
2022-10-13T11:55:44.258Z,8.73
2022-10-13T11:58:17.135Z,7.10
2022-10-13T12:00:56.286Z,7.60
2022-10-13T12:03:27.180Z,8.10
2022-10-13T12:05:58.107Z,7.50
2022-10-13T12:08:28.167Z,6.68
2022-10-13T12:10:58.296Z,7.45
2022-10-13T12:13:32.100Z,7.15
2022-10-13T12:16:03.217Z,7.93
2022-10-13T12:18:34.163Z,7.28
2022-10-13T12:21:04.561Z,7.93
2022-10-13T12:23:33.658Z,7.07
2022-10-13T12:26:01.760Z,7.22
2022-10-13T12:28:44.102Z,8.75
2022-10-13T12:31:19.750Z,10.13
2022-10-13T12:33:53.797Z,11.63
2022-10-13T12:36:26.362Z,10.40
2022-10-13T12:38:57.756Z,11.82
2022-10-13T12:41:28.284Z,11.35
2022-10-13T12:44:01.074Z,10.70
2022-10-13T12:46:41.759Z,9.85
2022-10-13T12:49:15.756Z,9.30
2022-10-13T12:51:44.733Z,9.35
2022-10-13T12:54:22.199Z,10.75
2022-10-13T12:56:53.811Z,15.98
2022-10-13T12:59:27.108Z,10.45
2022-10-13T13:01:58.057Z,13.20
2022-10-13T13:04:32.900Z,9.15
2022-10-13T13:07:04.865Z,9.60
2022-10-13T13:09:34.231Z,8.48
2022-10-13T13:12:22.650Z,8.48
2022-10-13T13:14:54.949Z,8.88
2022-10-13T13:17:56.689Z,16.08
2022-10-13T13:20:21.384Z,12.70
2022-10-13T13:22:50.698Z,10.85
2022-10-13T13:25:18.387Z,32.05
2022-10-13T13:27:46.080Z,20.73
2022-10-13T13:30:18.066Z,31.05
2022-10-13T13:32:45.719Z,15.18
2022-10-13T13:35:13.578Z,10.25
2022-10-13T13:37:45.353Z,12.13
2022-10-13T13:40:16.908Z,12.32
2022-10-13T13:42:44.803Z,14.50
2022-10-13T13:45:15.072Z,21.48
2022-10-13T13:47:42.776Z,14.30
2022-10-13T13:50:17.367Z,11.70
2022-10-13T13:52:45.091Z,14.88
2022-10-13T13:55:12.843Z,12.32
2022-10-13T13:57:40.695Z,10.52
2022-10-13T14:00:09.293Z,9.20
2022-10-13T14:02:38.367Z,9.80
2022-10-13T14:05:07.519Z,11.02
2022-10-13T14:07:35.420Z,10.95
2022-10-13T14:10:03.151Z,11.40
2022-10-13T14:12:31.072Z,12.43
2022-10-13T14:14:59.098Z,11.98
2022-10-13T14:17:26.832Z,12.60
2022-10-13T14:19:56.029Z,12.02
2022-10-13T14:22:23.949Z,13.13
2022-10-13T14:24:51.830Z,17.40
2022-10-13T14:27:19.489Z,13.40
2022-10-13T14:29:47.176Z,14.57
2022-10-13T14:32:14.859Z,15.43
2022-10-13T14:34:42.551Z,12.77
2022-10-13T14:37:14.739Z,19.48
2022-10-13T14:39:42.434Z,16.30
2022-10-13T14:42:10.263Z,50.60
2022-10-13T14:44:37.974Z,20.15
2022-10-13T14:47:05.768Z,16.65
2022-10-13T14:49:33.445Z,13.63
2022-10-13T14:52:01.165Z,40.03
2022-10-13T14:54:30.194Z,15.30
2022-10-13T14:57:00.527Z,16.00
2022-10-13T14:59:28.556Z,31.73
2022-10-13T15:01:56.267Z,24.20
2022-10-13T15:04:24.058Z,18.52
2022-10-13T15:06:51.988Z,15.05
2022-10-13T15:09:22.990Z,12.93
2022-10-13T15:11:58.239Z,13.85
2022-10-13T15:14:26.247Z,16.95
2022-10-13T15:16:53.951Z,16.45
2022-10-13T15:19:21.623Z,19.15
2022-10-13T15:21:49.944Z,17.38
2022-10-13T15:24:17.652Z,16.23
2022-10-13T15:26:45.299Z,16.17
2022-10-13T15:29:14.378Z,16.65
2022-10-13T15:31:42.069Z,16.58
2022-10-13T15:34:09.924Z,23.33
2022-10-13T15:36:37.640Z,44.17
2022-10-13T15:39:05.477Z,20.67
2022-10-13T15:41:33.127Z,18.45
2022-10-13T15:44:00.828Z,20.85
2022-10-13T15:46:31.467Z,14.75
2022-10-13T15:48:59.960Z,17.30
2022-10-13T15:51:27.909Z,19.58
2022-10-13T15:53:56.172Z,15.73
2022-10-13T15:56:24.114Z,15.65
2022-10-13T15:58:51.798Z,17.05
2022-10-13T16:01:19.535Z,22.95
2022-10-13T16:03:48.712Z,18.00
2022-10-13T16:06:16.394Z,15.63
2022-10-13T16:08:44.742Z,17.17
2022-10-13T16:11:14.556Z,18.75
2022-10-13T16:13:45.880Z,17.00
2022-10-13T16:16:13.528Z,16.08
2022-10-13T16:18:41.414Z,17.98
2022-10-13T16:21:15.883Z,23.98
2022-10-13T16:23:46.566Z,17.10
2022-10-13T16:26:14.653Z,19.48
2022-10-13T16:28:42.683Z,18.70
2022-10-13T16:31:13.451Z,22.27
2022-10-13T16:33:41.959Z,18.73
2022-10-13T16:36:13.310Z,19.77
2022-10-13T16:38:41.849Z,18.80
2022-10-13T16:41:14.521Z,16.38
2022-10-13T16:43:42.991Z,20.00
2022-10-13T16:46:13.407Z,20.25
2022-10-13T16:48:42.017Z,22.45
2022-10-13T16:51:14.421Z,23.65
2022-10-13T16:56:10.121Z,22.35
2022-10-13T16:58:37.790Z,19.92
2022-10-13T17:01:08.592Z,24.05
2022-10-13T17:03:36.582Z,23.25
2022-10-13T17:06:04.806Z,25.27
2022-10-13T17:08:34.206Z,21.58
2022-10-13T17:11:02.658Z,22.70
2022-10-13T17:13:32.171Z,20.45
2022-10-13T17:18:37.400Z,18.95
2022-10-13T17:21:08.959Z,18.92
2022-10-13T17:23:38.502Z,19.10
2022-10-13T17:26:08.183Z,27.23
2022-10-13T17:28:37.286Z,24.25
2022-10-13T17:31:07.489Z,19.90
2022-10-13T17:33:36.615Z,19.08
2022-10-13T17:36:07.319Z,20.25
2022-10-13T17:38:35.408Z,21.27
2022-10-13T17:41:07.439Z,20.08
2022-10-13T17:43:37.111Z,20.17
2022-10-13T17:46:34.423Z,22.38
2022-10-13T17:48:58.355Z,23.17
2022-10-13T17:51:26.375Z,23.25
2022-10-13T17:53:54.083Z,24.25
2022-10-13T17:56:25.000Z,19.55
2022-10-13T17:58:53.355Z,19.70
2022-10-13T18:01:23.678Z,18.88
2022-10-13T18:03:54.225Z,18.75
2022-10-13T18:06:23.104Z,16.63
2022-10-13T18:08:51.363Z,16.88
2022-10-13T18:11:21.019Z,16.33
2022-10-13T18:13:50.236Z,17.02
2022-10-13T18:16:21.387Z,16.60
2022-10-13T18:18:50.112Z,17.63
2022-10-13T18:21:19.583Z,17.83
2022-10-13T18:23:47.688Z,18.17
2022-10-13T18:26:16.922Z,19.50
2022-10-13T18:28:45.758Z,17.75
2022-10-13T18:31:17.121Z,19.33
2022-10-13T18:33:45.612Z,17.88
2022-10-13T18:36:16.893Z,18.60
2022-10-13T18:38:44.637Z,20.05
2022-10-13T18:41:12.390Z,23.80
2022-10-13T18:43:40.144Z,24.55
2022-10-13T18:46:07.856Z,26.20
2022-10-13T18:48:36.955Z,21.35
2022-10-13T18:51:06.112Z,25.08
2022-10-13T18:53:35.766Z,24.48
2022-10-13T18:56:05.010Z,24.63
2022-10-13T18:58:32.782Z,23.92
2022-10-13T19:01:01.436Z,25.40
2022-10-13T19:03:29.705Z,23.20
2022-10-13T19:06:07.038Z,26.33
2022-10-13T19:08:35.733Z,24.00
2022-10-13T19:11:11.379Z,23.23
2022-10-13T19:13:39.871Z,23.45
2022-10-13T19:16:08.256Z,24.58
2022-10-13T19:18:36.813Z,23.52
2022-10-13T19:21:06.896Z,24.02
2022-10-13T19:23:34.793Z,22.58
2022-10-13T19:26:14.919Z,25.05
2022-10-13T19:28:43.139Z,27.08
2022-10-13T19:31:11.412Z,24.63
2022-10-13T19:33:44.815Z,29.65
2022-10-13T19:36:24.171Z,36.60
2022-10-13T19:38:52.059Z,32.25
2022-10-13T19:41:19.966Z,31.17
2022-10-13T19:43:47.712Z,28.05
2022-10-13T19:46:15.966Z,28.63
2022-10-13T19:48:44.715Z,26.05
2022-10-13T19:51:14.687Z,26.75
2022-10-13T19:53:42.838Z,26.45
2022-10-13T19:56:19.439Z,27.75
2022-10-13T19:58:47.141Z,31.42
2022-10-13T20:01:15.141Z,30.90
2022-10-13T20:03:43.120Z,31.63
2022-10-13T20:06:10.917Z,25.58
2022-10-13T20:08:40.099Z,30.27
2022-10-13T20:11:08.833Z,30.50
2022-10-13T20:13:37.670Z,31.17
2022-10-13T20:16:07.260Z,35.60
2022-10-13T20:18:35.924Z,25.27
2022-10-13T20:21:05.203Z,33.30
2022-10-13T20:23:33.626Z,29.55
2022-10-13T20:26:04.832Z,35.92
2022-10-13T20:28:32.708Z,30.73
2022-10-13T20:31:02.763Z,32.97
2022-10-13T20:33:30.856Z,29.67
2022-10-13T20:36:00.666Z,29.73
2022-10-13T20:38:30.216Z,24.08
2022-10-13T20:41:06.351Z,30.58
2022-10-13T20:43:34.279Z,31.92
2022-10-13T20:46:06.228Z,28.83
2022-10-13T20:48:57.791Z,28.23
2022-10-13T20:51:24.327Z,31.27
2022-10-13T20:53:52.815Z,25.60
2022-10-13T20:56:23.535Z,29.83
2022-10-13T20:58:51.852Z,27.58
2022-10-13T21:01:22.011Z,27.88
2022-10-13T21:03:52.622Z,26.63
2022-10-13T21:06:20.770Z,26.40
2022-10-13T21:08:49.182Z,24.70
2022-10-13T21:11:20.143Z,27.08
2022-10-13T21:13:50.590Z,26.90
2022-10-13T21:16:20.092Z,24.15
2022-10-13T21:18:49.698Z,26.73
2022-10-13T21:21:19.957Z,23.08
2022-10-13T21:23:50.559Z,23.17
2022-10-13T21:26:21.571Z,23.33
2022-10-13T21:28:52.016Z,23.02
2022-10-13T21:31:22.531Z,22.90
2022-10-13T21:33:50.958Z,25.98
2022-10-13T21:36:21.414Z,24.13
2022-10-13T21:38:52.582Z,23.77
2022-10-13T21:41:20.841Z,28.17
2022-10-13T21:43:50.385Z,24.00
2022-10-13T21:46:20.195Z,27.80
2022-10-13T21:48:49.419Z,27.95
2022-10-13T21:51:19.184Z,27.60
2022-10-13T21:53:49.814Z,24.15
2022-10-13T21:56:18.397Z,20.90
2022-10-13T21:58:51.749Z,20.95
2022-10-13T22:01:20.469Z,18.65
2022-10-13T22:03:49.308Z,16.70
2022-10-13T22:06:19.711Z,18.00
2022-10-13T22:08:48.674Z,17.63
2022-10-13T22:11:20.666Z,19.27
2022-10-13T22:13:48.430Z,16.38
2022-10-13T22:16:20.482Z,18.15
2022-10-13T22:18:48.597Z,16.08
2022-10-13T22:21:20.114Z,16.88
2022-10-13T22:23:47.962Z,16.13
2022-10-13T22:26:16.687Z,16.25
2022-10-13T22:28:48.138Z,15.68
2022-10-13T22:31:17.307Z,16.03
2022-10-13T22:33:45.439Z,18.17
2022-10-13T22:36:16.376Z,18.83
2022-10-13T22:38:44.284Z,14.98
2022-10-13T22:41:14.700Z,15.50
2022-10-13T22:43:44.347Z,17.75
2022-10-13T22:46:12.581Z,16.35
2022-10-13T22:48:42.076Z,16.75
2022-10-13T22:51:11.826Z,18.55
2022-10-13T22:53:39.496Z,20.42
2022-10-13T22:56:08.844Z,18.17
2022-10-13T22:58:36.752Z,16.42
2022-10-13T23:01:08.627Z,17.23
2022-10-13T23:03:36.996Z,18.15
2022-10-13T23:06:07.944Z,16.83
2022-10-13T23:08:36.170Z,15.77
2022-10-13T23:11:03.836Z,15.15
2022-10-13T23:13:31.687Z,20.65
2022-10-13T23:16:02.363Z,17.88
2022-10-13T23:18:30.091Z,20.15
2022-10-13T23:20:57.912Z,17.38
2022-10-13T23:23:27.085Z,17.90
2022-10-13T23:25:54.774Z,19.17
2022-10-13T23:28:22.538Z,15.10
2022-10-13T23:30:50.231Z,17.83
2022-10-13T23:33:17.919Z,19.98
2022-10-13T23:35:45.636Z,19.08
2022-10-13T23:38:13.340Z,16.48
2022-10-13T23:40:42.405Z,20.70
2022-10-13T23:43:10.091Z,19.00
2022-10-13T23:45:37.768Z,20.25
2022-10-13T23:48:06.053Z,16.15
2022-10-13T23:50:33.802Z,16.63
2022-10-13T23:53:01.642Z,17.02
2022-10-13T23:55:29.432Z,16.88
2022-10-13T23:57:58.413Z,18.08
